createdAt,value
2019-02-16T00:00:51.698Z,75.13
2019-02-16T00:03:56.314Z,76.13
2019-02-16T00:07:01.166Z,75.33
2019-02-16T00:10:06.072Z,75.40
2019-02-16T00:13:12.822Z,75.37
2019-02-16T00:16:17.585Z,77.03
2019-02-16T00:19:22.330Z,82.77
2019-02-16T00:22:27.351Z,82.33
2019-02-16T00:25:32.091Z,80.77
2019-02-16T00:28:36.929Z,77.97
2019-02-16T00:31:41.740Z,78.90
2019-02-16T00:34:46.574Z,71.70
2019-02-16T00:37:51.398Z,80.07
2019-02-16T00:40:56.134Z,76.67
2019-02-16T00:44:00.849Z,77.67
2019-02-16T00:47:07.049Z,78.33
2019-02-16T00:50:11.943Z,76.13
2019-02-16T00:53:16.682Z,76.87
2019-02-16T00:56:21.196Z,80.67
2019-02-16T00:59:27.902Z,79.20
2019-02-16T01:02:32.387Z,77.97
2019-02-16T01:05:37.117Z,79.63
2019-02-16T01:08:41.932Z,77.73
2019-02-16T01:11:46.679Z,76.03
2019-02-16T01:14:51.417Z,79.93
2019-02-16T01:17:56.137Z,76.33
2019-02-16T01:21:01.983Z,72.10
2019-02-16T01:24:06.926Z,71.27
2019-02-16T01:27:11.770Z,73.43
2019-02-16T01:30:16.373Z,74.43
2019-02-16T01:33:21.228Z,73.83
2019-02-16T01:36:26.274Z,74.70
2019-02-16T01:39:31.065Z,73.87
2019-02-16T01:42:35.925Z,70.90
2019-02-16T01:45:43.574Z,72.80
2019-02-16T01:48:50.142Z,67.67
2019-02-16T01:51:54.800Z,69.03
2019-02-16T01:54:59.632Z,65.10
2019-02-16T01:58:04.374Z,64.73
2019-02-16T02:01:09.181Z,61.57
2019-02-16T02:04:13.889Z,62.17
2019-02-16T02:07:20.002Z,60.47
2019-02-16T02:10:24.697Z,57.17
2019-02-16T02:13:29.552Z,56.43
2019-02-16T02:16:34.253Z,54.73
2019-02-16T02:19:38.798Z,53.37
2019-02-16T02:22:43.708Z,51.90
2019-02-16T02:25:48.553Z,50.33
2019-02-16T02:28:53.263Z,49.40
2019-02-16T02:31:57.818Z,47.93
2019-02-16T02:35:02.225Z,45.37
2019-02-16T02:38:07.162Z,46.17
2019-02-16T02:41:11.989Z,43.50
2019-02-16T02:44:16.805Z,42.27
2019-02-16T02:47:21.437Z,43.30
2019-02-16T02:50:26.085Z,41.33
2019-02-16T02:53:31.841Z,37.30
2019-02-16T02:56:36.655Z,37.73
2019-02-16T02:59:41.376Z,35.53
2019-02-16T03:02:46.201Z,34.93
2019-02-16T03:05:50.846Z,35.17
2019-02-16T03:08:55.776Z,34.30
2019-02-16T03:12:00.703Z,33.63
2019-02-16T03:15:05.622Z,31.73
2019-02-16T03:18:10.477Z,31.40
2019-02-16T03:21:14.875Z,32.10
2019-02-16T03:24:19.725Z,28.60
2019-02-16T03:27:54.936Z,27.67
2019-02-16T03:31:34.996Z,26.73
2019-02-16T03:34:45.174Z,27.03
2019-02-16T03:38:35.806Z,27.63
2019-02-16T03:41:40.531Z,25.30
2019-02-16T03:44:45.271Z,25.33
2019-02-16T03:47:50.012Z,23.10
2019-02-16T03:50:54.829Z,23.33
2019-02-16T03:53:59.446Z,23.47
2019-02-16T03:57:04.277Z,21.00
2019-02-16T04:00:09.461Z,21.20
2019-02-16T04:03:14.052Z,20.00
2019-02-16T04:06:18.989Z,21.40
2019-02-16T04:09:23.809Z,21.27
2019-02-16T04:12:28.674Z,21.83
2019-02-16T04:15:33.568Z,24.17
2019-02-16T04:18:38.218Z,24.37
2019-02-16T04:21:43.038Z,23.17
2019-02-16T04:24:47.786Z,24.20
2019-02-16T04:27:52.486Z,23.03
2019-02-16T04:30:57.313Z,24.50
2019-02-16T04:34:02.145Z,23.73
2019-02-16T04:37:07.017Z,24.97
2019-02-16T04:40:11.807Z,23.90
2019-02-16T04:43:17.494Z,24.13
2019-02-16T04:46:22.287Z,26.77
2019-02-16T04:49:26.912Z,25.40
2019-02-16T04:52:34.755Z,26.93
2019-02-16T04:55:38.112Z,27.83
2019-02-16T04:58:43.095Z,27.80
2019-02-16T05:01:47.970Z,28.30
2019-02-16T05:04:52.639Z,29.03
2019-02-16T05:07:57.422Z,28.63
2019-02-16T05:11:02.264Z,29.33
2019-02-16T05:14:08.914Z,31.33
2019-02-16T05:17:13.567Z,31.00
2019-02-16T05:20:18.490Z,32.37
2019-02-16T05:23:23.124Z,30.83
2019-02-16T05:26:30.325Z,33.50
2019-02-16T05:29:35.144Z,35.17
2019-02-16T05:32:39.965Z,32.90
2019-02-16T05:35:44.800Z,40.50
2019-02-16T05:38:49.756Z,43.40
2019-02-16T05:41:54.664Z,48.73
2019-02-16T05:44:59.413Z,53.23
2019-02-16T05:48:04.305Z,57.13
2019-02-16T05:51:09.358Z,58.70
2019-02-16T05:54:14.071Z,61.73
2019-02-16T05:57:18.602Z,62.63
2019-02-16T06:00:26.698Z,62.30
2019-02-16T06:03:31.479Z,65.83
2019-02-16T06:06:36.263Z,64.57
2019-02-16T06:09:41.222Z,62.93
2019-02-16T06:12:47.724Z,62.93
2019-02-16T06:15:52.515Z,62.77
2019-02-16T06:18:57.450Z,61.40
2019-02-16T06:22:02.244Z,58.80
2019-02-16T06:25:07.205Z,58.90
2019-02-16T06:28:11.925Z,57.60
2019-02-16T06:31:16.757Z,55.90
2019-02-16T06:34:21.695Z,56.33
2019-02-16T06:37:26.661Z,47.10
2019-02-16T06:40:31.452Z,49.93
2019-02-16T06:43:36.402Z,49.70
2019-02-16T06:46:41.032Z,47.73
2019-02-16T06:49:45.845Z,44.97
2019-02-16T06:52:50.719Z,44.60
2019-02-16T06:56:09.850Z,39.13
2019-02-16T06:59:14.878Z,37.13
2019-02-16T07:02:20.492Z,35.67
2019-02-16T07:05:25.453Z,36.87
2019-02-16T07:08:30.506Z,34.17
2019-02-16T07:11:35.637Z,35.53
2019-02-16T07:14:43.969Z,35.00
2019-02-16T07:17:56.696Z,19.40
2019-02-16T07:21:01.255Z,20.43
2019-02-16T07:24:06.000Z,23.63
2019-02-16T07:27:10.718Z,24.27
2019-02-16T07:30:15.453Z,25.53
2019-02-16T07:33:20.387Z,30.30
2019-02-16T07:36:25.037Z,26.80
2019-02-16T07:39:29.755Z,27.57
2019-02-16T07:43:08.716Z,31.20
2019-02-16T07:46:22.942Z,26.10
2019-02-16T07:49:47.295Z,26.73
2019-02-16T07:53:06.329Z,24.27
2019-02-16T07:56:30.142Z,23.90
2019-02-16T07:59:44.244Z,23.60
2019-02-16T08:03:19.737Z,19.90
2019-02-16T08:06:46.320Z,21.90
2019-02-16T08:10:16.082Z,30.33
2019-02-16T08:13:45.773Z,29.33
2019-02-16T08:16:57.013Z,27.23
2019-02-16T08:20:19.398Z,19.07
2019-02-16T08:23:49.946Z,14.57
2019-02-16T08:27:16.976Z,15.93
2019-02-16T08:30:46.461Z,12.77
2019-02-16T08:34:08.995Z,11.37
2019-02-16T08:37:38.461Z,12.17
2019-02-16T08:41:00.669Z,10.87
2019-02-16T08:44:27.520Z,10.33
2019-02-16T08:47:48.427Z,9.87
2019-02-16T08:51:02.500Z,10.30
2019-02-16T08:54:17.558Z,9.07
2019-02-16T08:57:41.089Z,11.00
2019-02-16T09:01:14.079Z,11.23
2019-02-16T09:04:45.552Z,12.40
2019-02-16T09:08:08.274Z,13.80
2019-02-16T09:11:31.040Z,11.57
2019-02-16T09:14:57.520Z,12.30
2019-02-16T09:18:19.888Z,12.00
2019-02-16T09:21:33.292Z,11.80
2019-02-16T09:25:02.840Z,11.47
2019-02-16T09:28:29.791Z,11.37
2019-02-16T09:31:56.380Z,12.40
2019-02-16T09:35:32.380Z,11.17
2019-02-16T09:38:47.005Z,17.53
2019-02-16T09:41:57.322Z,21.60
2019-02-16T09:45:24.182Z,23.60
2019-02-16T09:48:50.659Z,26.33
2019-02-16T09:52:12.903Z,25.10
2019-02-16T09:55:42.335Z,27.67
2019-02-16T09:59:04.584Z,29.50
2019-02-16T10:02:28.107Z,30.20
2019-02-16T10:05:51.025Z,32.83
2019-02-16T10:09:05.485Z,36.73
2019-02-16T10:12:27.840Z,39.93
2019-02-16T10:16:03.370Z,37.97
2019-02-16T10:19:25.165Z,44.27
2019-02-16T10:22:51.095Z,130.63
2019-02-16T10:26:11.286Z,43.93
2019-02-16T10:29:40.805Z,47.87
2019-02-16T10:33:07.662Z,50.70
2019-02-16T10:36:34.022Z,47.90
2019-02-16T10:39:56.552Z,48.00
2019-02-16T10:43:28.106Z,49.40
2019-02-16T10:46:55.518Z,51.20
2019-02-16T10:50:34.096Z,55.50
2019-02-16T10:53:57.966Z,56.50
2019-02-16T10:57:28.079Z,51.50
2019-02-16T11:00:51.767Z,54.47
2019-02-16T11:04:01.377Z,55.90
2019-02-16T11:07:14.480Z,56.10
2019-02-16T11:10:35.765Z,59.20
2019-02-16T11:13:59.457Z,91.17
2019-02-16T11:17:29.123Z,33.27
2019-02-16T11:20:58.823Z,20.77
2019-02-16T11:24:25.345Z,19.50
2019-02-16T11:27:55.178Z,19.40
2019-02-16T11:31:14.240Z,23.33
2019-02-16T11:34:38.039Z,23.60
2019-02-16T11:38:00.568Z,22.70
2019-02-16T11:41:30.049Z,20.93
2019-02-16T11:44:46.769Z,21.30
2019-02-16T11:48:14.092Z,22.33
2019-02-16T11:51:36.283Z,21.10
2019-02-16T11:54:55.030Z,20.33
2019-02-16T11:58:30.838Z,20.77
2019-02-16T12:01:57.399Z,20.93
2019-02-16T12:05:33.228Z,20.00
2019-02-16T12:09:07.749Z,20.00
2019-02-16T12:12:36.826Z,19.23
2019-02-16T12:16:00.368Z,20.43
2019-02-16T12:19:22.716Z,19.50
2019-02-16T12:22:40.375Z,19.60
2019-02-16T12:25:59.513Z,19.50
2019-02-16T12:29:22.059Z,20.57
2019-02-16T12:32:44.468Z,44.23
2019-02-16T12:36:14.458Z,43.70
2019-02-16T12:39:50.211Z,48.60
2019-02-16T12:43:10.957Z,51.63
2019-02-16T12:46:37.898Z,50.90
2019-02-16T12:50:04.643Z,50.33
2019-02-16T12:53:19.791Z,54.30
2019-02-16T12:56:36.268Z,56.30
2019-02-16T13:00:12.193Z,54.73
2019-02-16T13:03:33.805Z,57.03
2019-02-16T13:06:48.884Z,58.97
2019-02-16T13:10:15.353Z,59.50
2019-02-16T13:13:46.977Z,60.80
2019-02-16T13:17:10.230Z,56.23
2019-02-16T13:20:31.801Z,56.73
2019-02-16T13:23:41.446Z,62.17
2019-02-16T13:27:00.390Z,27.77
2019-02-16T13:30:36.127Z,27.93
2019-02-16T13:33:58.224Z,20.90
2019-02-16T13:37:33.127Z,30.63
2019-02-16T13:40:56.059Z,31.97
2019-02-16T13:44:19.543Z,31.40
2019-02-16T13:47:31.765Z,32.33
2019-02-16T13:50:41.228Z,32.10
2019-02-16T13:54:17.048Z,31.90
2019-02-16T13:57:44.712Z,32.40
2019-02-16T14:01:11.270Z,33.33
2019-02-16T14:04:25.471Z,32.57
2019-02-16T14:08:01.004Z,33.10
2019-02-16T14:11:27.638Z,32.50
2019-02-16T14:14:51.355Z,33.00
2019-02-16T14:17:56.129Z,33.73
2019-02-16T14:21:00.664Z,35.00
2019-02-16T14:24:05.683Z,12.70
2019-02-16T14:27:10.658Z,17.07
2019-02-16T14:30:15.591Z,14.77
2019-02-16T14:33:20.499Z,10.70
2019-02-16T14:36:25.416Z,12.30
2019-02-16T14:39:31.567Z,19.50
2019-02-16T14:42:36.521Z,29.10
2019-02-16T14:45:41.755Z,19.67
2019-02-16T14:48:50.033Z,13.43
2019-02-16T14:51:54.917Z,37.40
2019-02-16T14:54:59.941Z,57.53
2019-02-16T14:58:05.656Z,56.03
2019-02-16T15:01:10.443Z,53.73
2019-02-16T15:04:15.052Z,56.90
2019-02-16T15:07:19.764Z,52.90
2019-02-16T15:10:24.592Z,49.07
2019-02-16T15:13:29.209Z,52.93
2019-02-16T15:16:35.351Z,47.87
2019-02-16T15:19:40.086Z,52.73
2019-02-16T15:22:44.945Z,43.23
2019-02-16T15:25:49.768Z,43.53
2019-02-16T15:28:54.515Z,42.60
2019-02-16T15:31:59.116Z,45.27
2019-02-16T15:35:03.952Z,44.93
2019-02-16T15:38:09.114Z,45.57
2019-02-16T15:41:13.916Z,53.00
2019-02-16T15:44:18.556Z,55.90
2019-02-16T15:47:23.368Z,55.73
2019-02-16T15:50:28.213Z,58.47
2019-02-16T15:53:34.898Z,62.83
2019-02-16T15:56:40.596Z,67.23
2019-02-16T15:59:45.171Z,68.73
2019-02-16T16:02:50.006Z,68.97
2019-02-16T16:05:55.010Z,70.13
2019-02-16T16:09:18.242Z,72.77
2019-02-16T16:12:41.720Z,71.00
2019-02-16T16:16:04.339Z,74.17
2019-02-16T16:19:31.251Z,72.70
2019-02-16T16:22:53.751Z,73.73
2019-02-16T16:26:21.300Z,72.40
2019-02-16T16:29:46.527Z,69.70
2019-02-16T16:33:09.084Z,72.53
2019-02-16T16:36:31.556Z,66.93
2019-02-16T16:39:54.438Z,67.23
2019-02-16T16:43:10.597Z,65.63
2019-02-16T16:46:40.071Z,61.50
2019-02-16T16:50:18.158Z,64.13
2019-02-16T16:53:36.287Z,62.17
2019-02-16T16:57:01.308Z,60.27
2019-02-16T17:00:23.601Z,58.10
2019-02-16T17:03:44.469Z,57.73
2019-02-16T17:07:06.739Z,52.03
2019-02-16T17:10:42.836Z,46.93
2019-02-16T17:13:57.556Z,49.43
2019-02-16T17:17:20.708Z,50.30
2019-02-16T17:20:41.732Z,48.13
2019-02-16T17:24:14.829Z,44.20
2019-02-16T17:27:38.412Z,47.20
2019-02-16T17:30:55.820Z,46.97
2019-02-16T17:34:24.784Z,43.47
2019-02-16T17:37:47.459Z,50.43
2019-02-16T17:40:59.182Z,44.53
2019-02-16T17:44:11.631Z,46.27
2019-02-16T17:47:24.615Z,48.80
2019-02-16T17:50:55.570Z,47.27
2019-02-16T17:54:25.342Z,47.13
2019-02-16T17:57:50.331Z,45.67
2019-02-16T18:01:19.771Z,45.00
2019-02-16T18:04:43.339Z,44.57
2019-02-16T18:07:58.759Z,43.47
2019-02-16T18:11:14.390Z,43.07
2019-02-16T18:14:36.489Z,30.23
2019-02-16T18:18:00.176Z,28.37
2019-02-16T18:21:39.198Z,29.43
2019-02-16T18:25:12.152Z,26.67
2019-02-16T18:28:57.252Z,25.80
2019-02-16T18:32:17.252Z,26.63
2019-02-16T18:35:37.335Z,23.33
2019-02-16T18:39:03.837Z,22.10
2019-02-16T18:42:36.742Z,23.40
2019-02-16T18:45:51.896Z,22.53
2019-02-16T18:49:21.456Z,21.27
2019-02-16T18:52:50.957Z,21.03
2019-02-16T18:56:20.713Z,21.27
2019-02-16T18:59:51.734Z,46.23
2019-02-16T19:03:06.288Z,33.73
2019-02-16T19:06:29.062Z,22.37
2019-02-16T19:09:55.589Z,24.23
2019-02-16T19:13:17.066Z,22.30
2019-02-16T19:16:41.783Z,23.73
2019-02-16T19:20:04.511Z,22.40
2019-02-16T19:23:21.062Z,22.30
2019-02-16T19:26:32.650Z,23.47
2019-02-16T19:29:56.520Z,22.97
2019-02-16T19:33:19.078Z,23.10
2019-02-16T19:36:36.577Z,23.77
2019-02-16T19:40:00.337Z,22.87
2019-02-16T19:43:22.831Z,22.57
2019-02-16T19:46:45.236Z,20.90
2019-02-16T19:50:04.199Z,22.63
2019-02-16T19:53:39.724Z,21.03
2019-02-16T19:57:02.166Z,22.63
2019-02-16T20:00:45.777Z,22.10
2019-02-16T20:04:12.492Z,23.53
2019-02-16T20:07:31.842Z,23.50
2019-02-16T20:10:45.497Z,24.53
2019-02-16T20:14:15.072Z,22.63
2019-02-16T20:17:53.647Z,22.57
2019-02-16T20:21:16.087Z,35.63
2019-02-16T20:24:45.974Z,41.07
2019-02-16T20:28:08.426Z,48.30
2019-02-16T20:31:19.637Z,49.67
2019-02-16T20:34:35.003Z,44.93
2019-02-16T20:38:03.279Z,40.50
2019-02-16T20:41:23.065Z,40.87
2019-02-16T20:44:49.561Z,69.53
2019-02-16T20:48:13.344Z,41.63
2019-02-16T20:51:46.035Z,40.40
2019-02-16T20:55:09.856Z,38.47
2019-02-16T20:58:33.607Z,36.37
2019-02-16T21:02:03.079Z,36.80
2019-02-16T21:05:20.377Z,34.50
2019-02-16T21:08:36.754Z,36.70
2019-02-16T21:12:00.463Z,35.53
2019-02-16T21:15:11.052Z,36.53
2019-02-16T21:18:46.724Z,35.53
2019-02-16T21:22:11.853Z,35.20
2019-02-16T21:25:39.624Z,175.83
2019-02-16T21:28:49.214Z,40.03
2019-02-16T21:32:17.240Z,36.73
2019-02-16T21:35:39.069Z,34.93
2019-02-16T21:39:03.525Z,33.20
2019-02-16T21:42:24.476Z,34.27
2019-02-16T21:45:58.076Z,31.37
2019-02-16T21:49:41.936Z,32.13
2019-02-16T21:53:08.182Z,54.87
2019-02-16T21:56:46.925Z,68.47
2019-02-16T22:00:22.411Z,63.10
2019-02-16T22:03:44.991Z,67.50
2019-02-16T22:07:17.222Z,58.53
2019-02-16T22:10:40.754Z,63.90
2019-02-16T22:13:45.698Z,67.23
2019-02-16T22:16:50.736Z,64.73
2019-02-16T22:19:55.646Z,67.70
2019-02-16T22:23:00.606Z,61.70
2019-02-16T22:26:05.400Z,66.80
2019-02-16T22:29:10.264Z,59.77
2019-02-16T22:32:15.335Z,71.30
2019-02-16T22:35:20.257Z,72.07
2019-02-16T22:38:25.158Z,63.57
2019-02-16T22:41:30.003Z,60.47
2019-02-16T22:44:34.951Z,58.97
2019-02-16T22:47:39.685Z,61.00
2019-02-16T22:50:44.557Z,61.20
2019-02-16T22:53:50.637Z,57.57
2019-02-16T22:56:55.339Z,61.00
2019-02-16T23:00:00.291Z,60.70
2019-02-16T23:03:06.071Z,58.67
2019-02-16T23:06:10.790Z,59.13
2019-02-16T23:09:27.516Z,59.27
2019-02-16T23:12:32.361Z,55.20
2019-02-16T23:15:37.165Z,56.63
2019-02-16T23:18:41.916Z,55.87
2019-02-16T23:21:46.412Z,57.67
2019-02-16T23:24:51.344Z,51.80
2019-02-16T23:27:56.155Z,53.93
2019-02-16T23:31:01.043Z,52.10
2019-02-16T23:34:05.718Z,50.23
2019-02-16T23:37:10.151Z,51.97
2019-02-16T23:40:14.875Z,50.87
2019-02-16T23:43:19.826Z,50.30
2019-02-16T23:46:24.640Z,50.47
2019-02-16T23:49:29.636Z,46.50
2019-02-16T23:52:35.943Z,46.60
2019-02-16T23:55:40.593Z,46.40
2019-02-16T23:58:49.359Z,46.73
